createdAt,value
2022-08-07T00:00:54.721Z,19.89
2022-08-07T00:02:59.810Z,19.87
2022-08-07T00:05:08.321Z,19.88
2022-08-07T00:07:13.186Z,19.89
2022-08-07T00:09:22.749Z,19.89
2022-08-07T00:11:29.954Z,19.88
2022-08-07T00:13:40.595Z,19.89
2022-08-07T00:15:51.183Z,19.88
2022-08-07T00:17:56.277Z,19.88
2022-08-07T00:20:03.534Z,19.88
2022-08-07T00:22:08.417Z,19.86
2022-08-07T00:24:16.926Z,19.85
2022-08-07T00:26:48.701Z,19.84
2022-08-07T00:28:56.747Z,19.81
2022-08-07T00:31:04.439Z,19.79
2022-08-07T00:33:11.118Z,19.77
2022-08-07T00:35:17.664Z,19.75
2022-08-07T00:37:22.680Z,19.73
2022-08-07T00:39:27.570Z,19.72
2022-08-07T00:41:45.267Z,19.71
2022-08-07T00:44:00.521Z,19.71
2022-08-07T00:46:07.967Z,19.69
2022-08-07T00:48:13.411Z,19.66
2022-08-07T00:50:33.080Z,19.64
2022-08-07T00:52:47.435Z,19.61
2022-08-07T00:54:53.877Z,19.60
2022-08-07T00:56:59.050Z,19.58
2022-08-07T00:59:05.386Z,19.56
2022-08-07T01:01:10.357Z,19.55
2022-08-07T01:03:15.455Z,19.54
2022-08-07T01:05:24.578Z,19.55
2022-08-07T01:07:30.935Z,19.55
2022-08-07T01:10:06.196Z,19.54
2022-08-07T01:12:09.745Z,19.52
2022-08-07T01:14:28.320Z,19.51
2022-08-07T01:16:34.074Z,19.50
2022-08-07T01:18:40.194Z,19.48
2022-08-07T01:20:57.292Z,19.48
2022-08-07T01:23:12.210Z,19.50
2022-08-07T01:25:54.667Z,19.51
2022-08-07T01:27:51.310Z,19.49
2022-08-07T01:29:56.955Z,19.49
2022-08-07T01:32:05.506Z,19.48
2022-08-07T01:34:11.882Z,19.49
2022-08-07T01:36:19.454Z,19.49
2022-08-07T01:38:40.732Z,19.49
2022-08-07T01:40:58.270Z,19.48
2022-08-07T01:43:03.396Z,19.47
2022-08-07T01:45:17.734Z,19.45
2022-08-07T01:48:18.893Z,19.43
2022-08-07T01:49:53.637Z,19.37
2022-08-07T01:52:04.954Z,19.31
2022-08-07T01:54:33.200Z,19.28
2022-08-07T01:56:49.322Z,19.24
2022-08-07T01:59:03.507Z,19.21
2022-08-07T02:01:25.437Z,19.18
2022-08-07T02:03:50.515Z,19.16
2022-08-07T02:06:02.572Z,19.12
2022-08-07T02:08:27.496Z,19.11
2022-08-07T02:10:34.346Z,19.08
2022-08-07T02:12:43.609Z,19.08
2022-08-07T02:14:58.398Z,19.09
2022-08-07T02:17:24.686Z,19.09
2022-08-07T02:20:04.431Z,19.07
2022-08-07T02:21:58.784Z,19.06
2022-08-07T02:24:05.753Z,19.06
2022-08-07T02:26:32.504Z,19.06
2022-08-07T02:28:39.587Z,19.07
2022-08-07T02:30:48.162Z,19.07
2022-08-07T02:33:00.743Z,19.07
2022-08-07T02:35:15.152Z,19.04
2022-08-07T02:37:27.855Z,19.02
2022-08-07T02:40:02.183Z,19.02
2022-08-07T02:42:10.170Z,18.99
2022-08-07T02:44:24.110Z,18.98
2022-08-07T02:46:34.994Z,18.98
2022-08-07T02:48:47.190Z,18.98
2022-08-07T02:51:05.201Z,18.98
2022-08-07T02:53:15.197Z,18.97
2022-08-07T02:55:28.314Z,18.98
2022-08-07T02:57:51.113Z,18.98
2022-08-07T03:00:01.148Z,18.97
2022-08-07T03:02:09.804Z,18.94
2022-08-07T03:04:19.020Z,18.92
2022-08-07T03:06:25.558Z,18.90
2022-08-07T03:08:31.642Z,18.91
2022-08-07T03:10:46.187Z,18.94
2022-08-07T03:12:52.812Z,18.94
2022-08-07T03:14:58.478Z,18.95
2022-08-07T03:17:08.786Z,18.96
2022-08-07T03:19:14.286Z,18.96
2022-08-07T03:21:19.858Z,18.95
2022-08-07T03:23:33.767Z,18.95
2022-08-07T03:25:58.371Z,18.95
2022-08-07T03:28:09.481Z,18.95
2022-08-07T03:30:33.151Z,18.95
2022-08-07T03:32:49.108Z,18.95
2022-08-07T03:35:17.836Z,18.96
2022-08-07T03:37:27.725Z,18.95
2022-08-07T03:39:46.144Z,18.95
2022-08-07T03:42:03.643Z,18.96
2022-08-07T03:44:09.430Z,18.94
2022-08-07T03:46:18.613Z,18.94
2022-08-07T03:48:26.781Z,18.94
2022-08-07T03:50:36.867Z,18.96
2022-08-07T03:52:42.891Z,18.97
2022-08-07T03:54:54.783Z,18.97
2022-08-07T03:57:07.497Z,18.95
2022-08-07T03:59:13.964Z,18.95
2022-08-07T04:01:23.300Z,18.94
2022-08-07T04:03:28.529Z,18.95
2022-08-07T04:05:53.600Z,18.96
2022-08-07T04:08:04.292Z,18.95
2022-08-07T04:10:15.300Z,18.96
2022-08-07T04:12:27.948Z,18.98
2022-08-07T04:14:37.750Z,18.99
2022-08-07T04:16:58.241Z,19.01
2022-08-07T04:19:12.757Z,19.02
2022-08-07T04:21:21.465Z,19.00
2022-08-07T04:23:43.348Z,18.97
2022-08-07T04:25:54.963Z,18.95
2022-08-07T04:28:02.752Z,18.97
2022-08-07T04:30:21.277Z,18.97
2022-08-07T04:32:40.306Z,18.97
2022-08-07T04:34:50.957Z,18.96
2022-08-07T04:36:56.835Z,18.97
2022-08-07T04:39:02.043Z,18.97
2022-08-07T04:41:07.679Z,18.98
2022-08-07T04:43:17.835Z,18.98
2022-08-07T04:45:57.279Z,18.99
2022-08-07T04:48:04.688Z,19.02
2022-08-07T04:50:25.987Z,19.03
2022-08-07T04:52:56.218Z,19.02
2022-08-07T04:55:14.864Z,19.04
2022-08-07T04:58:12.229Z,19.04
2022-08-07T05:00:30.351Z,19.02
2022-08-07T05:02:44.694Z,19.04
2022-08-07T05:05:12.044Z,19.07
2022-08-07T05:07:48.158Z,19.06
2022-08-07T05:09:59.279Z,19.07
2022-08-07T05:12:10.135Z,19.08
2022-08-07T05:14:52.379Z,19.11
2022-08-07T05:16:53.880Z,19.12
2022-08-07T05:19:03.542Z,19.13
2022-08-07T05:21:14.571Z,19.14
2022-08-07T05:23:30.939Z,19.14
2022-08-07T05:26:11.736Z,19.17
2022-08-07T05:28:20.041Z,19.17
2022-08-07T05:30:32.401Z,19.19
2022-08-07T05:32:40.275Z,19.20
2022-08-07T05:34:47.977Z,19.21
2022-08-07T05:36:55.823Z,19.23
2022-08-07T05:40:06.493Z,19.24
2022-08-07T05:42:00.184Z,19.25
2022-08-07T05:44:12.000Z,19.26
2022-08-07T05:46:19.744Z,19.26
2022-08-07T05:48:31.998Z,19.26
2022-08-07T05:50:42.706Z,19.26
2022-08-07T05:52:51.664Z,19.26
2022-08-07T05:54:58.566Z,19.26
2022-08-07T05:57:06.261Z,19.26
2022-08-07T05:59:21.407Z,19.30
2022-08-07T06:01:35.647Z,19.32
2022-08-07T06:03:53.455Z,19.32
2022-08-07T06:06:02.804Z,19.32
2022-08-07T06:08:30.358Z,19.33
2022-08-07T06:10:35.464Z,19.36
2022-08-07T06:12:41.454Z,19.37
2022-08-07T06:14:49.460Z,19.37
2022-08-07T06:16:57.149Z,19.40
2022-08-07T06:19:09.035Z,19.42
2022-08-07T06:22:15.684Z,19.44
2022-08-07T06:24:37.730Z,19.46
2022-08-07T06:26:16.943Z,19.48
2022-08-07T06:28:27.810Z,19.52
2022-08-07T06:30:37.175Z,19.57
2022-08-07T06:32:55.141Z,19.63
2022-08-07T06:35:01.057Z,19.65
2022-08-07T06:37:06.117Z,19.68
2022-08-07T06:40:13.362Z,19.73
2022-08-07T06:42:01.094Z,19.76
2022-08-07T06:44:31.096Z,19.83
2022-08-07T06:46:41.454Z,19.97
2022-08-07T06:48:48.907Z,20.09
2022-08-07T06:50:59.759Z,20.20
2022-08-07T06:53:49.175Z,20.28
2022-08-07T06:55:53.386Z,20.34
2022-08-07T06:58:04.249Z,20.36
2022-08-07T07:00:18.031Z,20.41
2022-08-07T07:02:27.050Z,20.39
2022-08-07T07:04:55.144Z,20.41
2022-08-07T07:07:02.227Z,20.42
2022-08-07T07:09:20.966Z,20.43
2022-08-07T07:12:09.009Z,20.40
2022-08-07T07:14:01.574Z,20.38
2022-08-07T07:16:13.940Z,20.37
2022-08-07T07:18:47.487Z,20.35
2022-08-07T07:20:56.498Z,20.40
2022-08-07T07:24:08.689Z,20.41
2022-08-07T07:26:33.964Z,20.39
2022-08-07T07:28:02.587Z,20.39
2022-08-07T07:30:12.155Z,20.39
2022-08-07T07:32:18.738Z,20.45
2022-08-07T07:34:30.736Z,20.51
2022-08-07T07:36:40.363Z,20.55
2022-08-07T07:38:47.593Z,20.58
2022-08-07T07:40:57.600Z,20.58
2022-08-07T07:43:15.193Z,20.57
2022-08-07T07:46:38.102Z,20.60
2022-08-07T07:47:54.208Z,20.64
2022-08-07T07:50:35.015Z,20.65
2022-08-07T07:52:28.518Z,20.64
2022-08-07T07:54:35.866Z,20.58
2022-08-07T07:56:41.579Z,20.53
2022-08-07T07:58:48.474Z,20.49
2022-08-07T08:00:56.150Z,20.47
2022-08-07T08:03:08.406Z,20.46
2022-08-07T08:05:16.015Z,20.55
2022-08-07T08:07:22.598Z,20.62
2022-08-07T08:09:52.158Z,20.78
2022-08-07T08:12:09.396Z,21.02
2022-08-07T08:14:21.408Z,21.19
2022-08-07T08:16:38.826Z,21.28
2022-08-07T08:18:45.079Z,21.33
2022-08-07T08:20:55.881Z,21.24
2022-08-07T08:23:03.689Z,21.23
2022-08-07T08:25:24.876Z,21.26
2022-08-07T08:27:44.071Z,21.20
2022-08-07T08:30:06.419Z,21.20
2022-08-07T08:32:18.463Z,21.25
2022-08-07T08:34:29.008Z,21.30
2022-08-07T08:36:36.806Z,21.28
2022-08-07T08:38:46.283Z,21.28
2022-08-07T08:40:58.064Z,21.25
2022-08-07T08:43:10.904Z,21.23
2022-08-07T08:45:26.635Z,21.23
2022-08-07T08:47:56.042Z,21.29
2022-08-07T08:50:15.125Z,21.37
2022-08-07T08:52:29.467Z,21.40
2022-08-07T08:54:45.166Z,21.47
2022-08-07T08:56:53.409Z,21.50
2022-08-07T08:59:08.680Z,21.53
2022-08-07T09:01:29.676Z,21.52
2022-08-07T09:03:57.751Z,21.54
2022-08-07T09:06:11.350Z,21.57
2022-08-07T09:08:31.890Z,21.54
2022-08-07T09:10:46.956Z,21.56
2022-08-07T09:13:09.632Z,21.61
2022-08-07T09:16:24.120Z,21.62
2022-08-07T09:18:22.619Z,21.64
2022-08-07T09:20:35.736Z,21.67
2022-08-07T09:24:35.069Z,21.68
2022-08-07T09:25:25.140Z,21.74
2022-08-07T09:28:00.413Z,21.78
2022-08-07T09:30:10.325Z,21.86
2022-08-07T09:32:26.405Z,21.89
2022-08-07T09:34:45.144Z,21.94
2022-08-07T09:37:04.656Z,21.99
2022-08-07T09:39:54.568Z,22.06
2022-08-07T09:42:04.079Z,22.07
2022-08-07T09:44:46.609Z,22.11
2022-08-07T09:47:51.688Z,22.17
2022-08-07T09:50:02.566Z,22.29
2022-08-07T09:52:34.643Z,22.37
2022-08-07T09:54:45.434Z,22.42
2022-08-07T09:57:32.764Z,22.45
2022-08-07T10:00:02.010Z,22.46
2022-08-07T10:02:34.695Z,22.51
2022-08-07T10:05:01.316Z,22.56
2022-08-07T10:07:52.767Z,22.65
2022-08-07T10:10:21.414Z,22.66
2022-08-07T10:12:52.894Z,22.68
2022-08-07T10:15:19.093Z,22.82
2022-08-07T10:18:02.541Z,22.90
2022-08-07T10:20:22.059Z,22.94
2022-08-07T10:22:51.154Z,22.99
2022-08-07T10:25:09.475Z,23.08
2022-08-07T10:27:46.829Z,23.13
2022-08-07T10:30:06.294Z,23.17
2022-08-07T10:32:37.101Z,23.24
2022-08-07T10:35:14.946Z,23.34
2022-08-07T10:38:00.963Z,23.42
2022-08-07T10:40:09.171Z,23.56
2022-08-07T10:42:31.122Z,23.61
2022-08-07T10:44:50.115Z,23.65
2022-08-07T10:47:00.749Z,23.75
2022-08-07T10:49:14.588Z,23.80
2022-08-07T10:51:57.182Z,23.81
2022-08-07T10:54:04.339Z,23.83
2022-08-07T10:56:31.125Z,23.91
2022-08-07T10:59:01.172Z,23.99
2022-08-07T11:01:23.726Z,24.10
2022-08-07T11:03:47.889Z,24.19
2022-08-07T11:06:08.647Z,24.32
2022-08-07T11:08:30.159Z,24.39
2022-08-07T11:10:43.520Z,24.49
2022-08-07T11:13:02.104Z,24.56
2022-08-07T11:15:17.287Z,24.60
2022-08-07T11:17:43.310Z,24.64
2022-08-07T11:19:55.764Z,24.67
2022-08-07T11:22:19.195Z,24.72
2022-08-07T11:24:45.420Z,24.71
2022-08-07T11:27:00.308Z,24.75
2022-08-07T11:29:13.352Z,24.80
2022-08-07T11:31:41.802Z,24.79
2022-08-07T11:33:59.948Z,24.76
2022-08-07T11:36:20.473Z,24.74
2022-08-07T11:38:40.592Z,24.77
2022-08-07T11:40:56.197Z,24.75
2022-08-07T11:43:08.358Z,24.76
2022-08-07T11:45:29.936Z,24.77
2022-08-07T11:47:59.507Z,24.75
2022-08-07T11:50:32.437Z,24.75
2022-08-07T11:52:49.992Z,24.70
2022-08-07T11:55:18.915Z,24.67
2022-08-07T11:57:59.443Z,24.67
2022-08-07T12:00:18.958Z,24.68
2022-08-07T12:02:52.752Z,24.67
2022-08-07T12:05:15.378Z,24.68
2022-08-07T12:07:39.089Z,24.70
2022-08-07T12:09:54.093Z,24.73
2022-08-07T12:12:10.576Z,24.77
2022-08-07T12:14:20.287Z,24.81
2022-08-07T12:16:30.580Z,24.83
2022-08-07T12:18:45.534Z,24.88
2022-08-07T12:21:05.882Z,24.93
2022-08-07T12:24:05.711Z,24.92
2022-08-07T12:26:06.070Z,24.95
2022-08-07T12:28:31.078Z,24.93
2022-08-07T12:30:40.702Z,24.94
2022-08-07T12:32:58.614Z,24.96
2022-08-07T12:35:08.487Z,24.99
2022-08-07T12:37:16.856Z,25.00
2022-08-07T12:39:42.263Z,25.02
2022-08-07T12:41:52.080Z,25.00
2022-08-07T12:44:03.674Z,25.00
2022-08-07T12:46:26.653Z,25.03
2022-08-07T12:48:53.290Z,25.05
2022-08-07T12:51:17.067Z,25.09
2022-08-07T12:54:02.861Z,25.16
2022-08-07T12:56:09.673Z,25.20
2022-08-07T12:58:22.489Z,25.25
2022-08-07T13:00:50.107Z,25.29
2022-08-07T13:03:13.130Z,25.30
2022-08-07T13:06:03.112Z,25.38
2022-08-07T13:08:29.336Z,25.50
2022-08-07T13:10:52.052Z,25.55
2022-08-07T13:13:10.945Z,25.55
2022-08-07T13:15:29.522Z,25.55
2022-08-07T13:17:44.351Z,25.62
2022-08-07T13:19:54.610Z,25.66
2022-08-07T13:22:12.753Z,25.64
2022-08-07T13:24:52.452Z,25.66
2022-08-07T13:27:05.762Z,25.71
2022-08-07T13:29:15.301Z,25.81
2022-08-07T13:31:26.177Z,25.91
2022-08-07T13:34:34.221Z,26.01
2022-08-07T13:36:19.466Z,26.09
2022-08-07T13:38:31.415Z,26.10
2022-08-07T13:40:43.245Z,26.13
2022-08-07T13:42:51.305Z,26.13
2022-08-07T13:46:06.167Z,26.19
2022-08-07T13:48:05.826Z,26.22
2022-08-07T13:50:33.009Z,26.24
2022-08-07T13:52:33.573Z,26.25
2022-08-07T13:54:49.255Z,26.23
2022-08-07T13:56:59.863Z,26.30
2022-08-07T13:59:12.224Z,26.38
2022-08-07T14:01:20.374Z,26.46
2022-08-07T14:04:07.730Z,26.50
2022-08-07T14:05:57.369Z,26.46
2022-08-07T14:08:04.848Z,26.42
2022-08-07T14:10:21.651Z,26.42
2022-08-07T14:12:42.025Z,26.45
2022-08-07T14:15:00.495Z,26.48
2022-08-07T14:17:12.980Z,26.53
2022-08-07T14:20:42.032Z,26.46
2022-08-07T14:22:11.636Z,26.43
2022-08-07T14:24:28.030Z,26.45
2022-08-07T14:26:40.597Z,26.41
2022-08-07T14:29:01.175Z,26.47
2022-08-07T14:31:13.849Z,26.53
2022-08-07T14:33:23.789Z,26.50
2022-08-07T14:35:43.216Z,26.53
2022-08-07T14:38:05.602Z,26.51
2022-08-07T14:40:26.747Z,26.54
2022-08-07T14:42:35.337Z,26.56
2022-08-07T14:45:21.598Z,26.61
2022-08-07T14:47:31.474Z,26.57
2022-08-07T14:49:58.163Z,26.52
2022-08-07T14:52:10.268Z,26.42
2022-08-07T14:54:31.346Z,26.39
2022-08-07T14:56:43.430Z,26.33
2022-08-07T14:58:55.061Z,26.26
2022-08-07T15:01:19.560Z,26.25
2022-08-07T15:03:51.411Z,26.28
2022-08-07T15:06:03.922Z,26.33
2022-08-07T15:08:12.442Z,26.38
2022-08-07T15:10:26.132Z,26.35
2022-08-07T15:12:35.957Z,26.31
2022-08-07T15:17:16.901Z,26.28
2022-08-07T15:22:03.953Z,26.21
2022-08-07T15:25:15.511Z,26.18
2022-08-07T15:26:43.857Z,26.17
2022-08-07T15:28:59.467Z,26.15
2022-08-07T15:32:01.675Z,26.08
2022-08-07T15:33:57.032Z,25.99
2022-08-07T15:38:51.286Z,25.85
2022-08-07T15:41:00.341Z,25.83
2022-08-07T15:43:53.315Z,25.80
2022-08-07T15:45:57.507Z,25.83
2022-08-07T15:48:20.252Z,25.83
2022-08-07T15:51:01.261Z,25.81
2022-08-07T15:52:58.434Z,25.82
2022-08-07T15:55:12.153Z,25.79
2022-08-07T15:57:39.761Z,25.75
2022-08-07T15:59:50.227Z,25.71
2022-08-07T16:02:02.167Z,25.69
2022-08-07T16:04:15.603Z,25.61
2022-08-07T16:06:28.301Z,25.54
2022-08-07T16:08:40.776Z,25.49
2022-08-07T16:10:52.372Z,25.43
2022-08-07T16:13:39.381Z,25.39
2022-08-07T16:16:42.772Z,25.33
2022-08-07T16:18:50.726Z,25.21
2022-08-07T16:21:44.145Z,25.14
2022-08-07T16:23:53.572Z,25.10
2022-08-07T16:26:08.157Z,25.01
2022-08-07T16:30:08.642Z,24.94
2022-08-07T16:31:00.264Z,24.86
2022-08-07T16:34:02.072Z,24.81
2022-08-07T16:35:59.468Z,24.73
2022-08-07T16:38:59.902Z,24.67
2022-08-07T16:41:41.786Z,24.60
2022-08-07T16:45:04.096Z,24.57
2022-08-07T16:47:31.412Z,24.52
2022-08-07T16:50:20.674Z,24.47
2022-08-07T16:52:55.995Z,24.46
2022-08-07T16:55:14.892Z,24.47
2022-08-07T16:58:02.345Z,24.46
2022-08-07T17:00:10.941Z,24.44
2022-08-07T17:02:53.486Z,24.37
2022-08-07T17:06:01.476Z,24.28
2022-08-07T17:07:55.841Z,24.22
2022-08-07T17:10:09.187Z,24.17
2022-08-07T17:12:44.370Z,24.14
2022-08-07T17:14:56.308Z,24.13
2022-08-07T17:17:08.470Z,24.12
2022-08-07T17:20:00.972Z,24.08
2022-08-07T17:21:59.001Z,24.00
2022-08-07T17:24:38.639Z,23.87
2022-08-07T17:26:51.895Z,23.66
2022-08-07T17:29:07.060Z,23.42
2022-08-07T17:31:17.902Z,23.14
2022-08-07T17:33:39.098Z,22.90
2022-08-07T17:36:02.881Z,22.63
2022-08-07T17:38:33.898Z,22.35
2022-08-07T17:40:50.502Z,22.02
2022-08-07T17:43:02.578Z,21.69
2022-08-07T17:45:24.273Z,21.40
2022-08-07T17:47:42.375Z,21.16
2022-08-07T17:49:54.462Z,20.96
2022-08-07T17:52:10.624Z,20.79
2022-08-07T17:54:29.615Z,20.61
2022-08-07T17:56:52.541Z,20.46
2022-08-07T17:59:17.161Z,20.38
2022-08-07T18:01:34.819Z,20.30
2022-08-07T18:04:03.721Z,20.27
2022-08-07T18:06:36.622Z,20.25
2022-08-07T18:09:01.885Z,20.23
2022-08-07T18:12:17.652Z,20.22
2022-08-07T18:13:49.777Z,20.21
2022-08-07T18:16:09.939Z,20.19
2022-08-07T18:18:47.501Z,20.19
2022-08-07T18:21:12.801Z,20.17
2022-08-07T18:23:43.704Z,20.16
2022-08-07T18:26:03.561Z,20.15
2022-08-07T18:28:35.566Z,20.16
2022-08-07T18:30:58.471Z,20.17
2022-08-07T18:33:55.626Z,20.17
2022-08-07T18:36:14.668Z,20.19
2022-08-07T18:38:55.109Z,20.20
2022-08-07T18:41:09.280Z,20.19
2022-08-07T18:43:36.701Z,20.18
2022-08-07T18:46:25.858Z,20.20
2022-08-07T18:50:04.838Z,20.23
2022-08-07T18:51:05.758Z,20.26
2022-08-07T18:53:22.003Z,20.27
2022-08-07T18:55:56.253Z,20.32
2022-08-07T18:58:33.605Z,20.36
2022-08-07T19:00:54.190Z,20.35
2022-08-07T19:03:12.041Z,20.37
2022-08-07T19:06:02.065Z,20.41
2022-08-07T19:07:59.664Z,20.42
2022-08-07T19:10:21.471Z,20.42
2022-08-07T19:12:34.599Z,20.41
2022-08-07T19:14:51.188Z,20.41
2022-08-07T19:17:08.547Z,20.44
2022-08-07T19:19:32.040Z,20.45
2022-08-07T19:21:53.630Z,20.47
2022-08-07T19:24:09.535Z,20.50
2022-08-07T19:26:22.809Z,20.50
2022-08-07T19:30:55.224Z,20.49
2022-08-07T19:31:41.752Z,20.51
2022-08-07T19:33:43.342Z,20.54
2022-08-07T19:36:03.079Z,20.55
2022-08-07T19:38:16.815Z,20.56
2022-08-07T19:40:31.238Z,20.59
2022-08-07T19:42:42.882Z,20.62
2022-08-07T19:44:49.473Z,20.68
2022-08-07T19:47:05.466Z,20.72
2022-08-07T19:49:16.598Z,20.74
2022-08-07T19:51:51.295Z,20.78
2022-08-07T19:54:33.256Z,20.80
2022-08-07T19:58:01.451Z,20.78
2022-08-07T19:58:52.825Z,20.78
2022-08-07T20:00:59.722Z,20.78
2022-08-07T20:03:33.636Z,20.80
2022-08-07T20:06:00.662Z,20.79
2022-08-07T20:08:09.213Z,20.83
2022-08-07T20:10:35.352Z,20.87
2022-08-07T20:12:43.256Z,20.90
2022-08-07T20:14:58.649Z,20.92
2022-08-07T20:17:07.944Z,20.93
2022-08-07T20:19:13.834Z,20.95
2022-08-07T20:21:22.101Z,20.97
2022-08-07T20:23:40.668Z,20.98
2022-08-07T20:25:51.074Z,20.98
2022-08-07T20:28:05.763Z,20.98
2022-08-07T20:30:12.929Z,20.99
2022-08-07T20:32:39.707Z,20.99
2022-08-07T20:34:51.181Z,20.98
2022-08-07T20:36:59.156Z,20.98
2022-08-07T20:39:11.630Z,20.95
2022-08-07T20:41:37.969Z,20.95
2022-08-07T20:43:47.787Z,20.93
2022-08-07T20:46:28.240Z,20.92
2022-08-07T20:48:28.295Z,20.92
2022-08-07T20:50:35.600Z,20.90
2022-08-07T20:52:51.159Z,20.89
2022-08-07T20:54:58.005Z,20.87
2022-08-07T20:57:08.180Z,20.86
2022-08-07T21:00:04.879Z,20.85
2022-08-07T21:01:54.897Z,20.83
2022-08-07T21:04:22.192Z,20.82
2022-08-07T21:06:31.409Z,20.80
2022-08-07T21:08:40.725Z,20.79
2022-08-07T21:10:49.127Z,20.80
2022-08-07T21:12:57.859Z,20.81
2022-08-07T21:15:08.249Z,20.81
2022-08-07T21:18:03.309Z,20.82
2022-08-07T21:19:51.323Z,20.83
2022-08-07T21:22:07.876Z,20.84
2022-08-07T21:24:18.658Z,20.85
2022-08-07T21:26:34.786Z,20.85
2022-08-07T21:28:51.131Z,20.85
2022-08-07T21:31:12.401Z,20.85
2022-08-07T21:33:22.053Z,20.85
2022-08-07T21:35:34.513Z,20.85
2022-08-07T21:38:08.343Z,20.83
2022-08-07T21:40:20.469Z,20.83
2022-08-07T21:42:42.802Z,20.84
2022-08-07T21:44:57.538Z,20.83
2022-08-07T21:47:12.371Z,20.82
2022-08-07T21:49:27.063Z,20.81
2022-08-07T21:51:54.538Z,20.79
2022-08-07T21:54:18.826Z,20.78
2022-08-07T21:56:47.844Z,20.76
2022-08-07T21:59:03.705Z,20.73
2022-08-07T22:01:28.686Z,20.72
2022-08-07T22:03:57.509Z,20.72
2022-08-07T22:06:29.998Z,20.70
2022-08-07T22:08:37.733Z,20.71
2022-08-07T22:10:47.981Z,20.70
2022-08-07T22:12:57.260Z,20.70
2022-08-07T22:16:43.937Z,20.71
2022-08-07T22:17:44.183Z,20.72
2022-08-07T22:20:23.550Z,20.71
2022-08-07T22:22:36.762Z,20.71
2022-08-07T22:25:02.911Z,20.71
2022-08-07T22:27:16.171Z,20.71
2022-08-07T22:29:37.823Z,20.71
2022-08-07T22:32:03.453Z,20.71
2022-08-07T22:34:17.513Z,20.71
2022-08-07T22:36:42.303Z,20.74
2022-08-07T22:38:55.301Z,20.77
2022-08-07T22:41:03.238Z,20.81
2022-08-07T22:43:16.997Z,20.83
2022-08-07T22:46:21.655Z,20.85
2022-08-07T22:48:13.971Z,20.88
2022-08-07T22:50:46.114Z,20.91
2022-08-07T22:53:15.254Z,20.90
2022-08-07T22:55:51.647Z,20.81
2022-08-07T22:58:10.530Z,20.67
2022-08-07T23:00:21.451Z,20.60
2022-08-07T23:02:42.218Z,20.55
2022-08-07T23:06:07.352Z,20.51
2022-08-07T23:07:42.191Z,20.49
2022-08-07T23:10:34.182Z,20.46
2022-08-07T23:12:39.476Z,20.44
2022-08-07T23:15:00.036Z,20.40
2022-08-07T23:17:22.585Z,20.36
2022-08-07T23:19:51.498Z,20.34
2022-08-07T23:22:03.319Z,20.31
2022-08-07T23:24:27.954Z,20.32
2022-08-07T23:26:50.175Z,20.36
2022-08-07T23:29:43.918Z,20.39
2022-08-07T23:34:20.124Z,20.43
2022-08-07T23:34:44.932Z,20.46
2022-08-07T23:37:20.257Z,20.45
2022-08-07T23:39:41.246Z,20.41
2022-08-07T23:42:04.314Z,20.38
2022-08-07T23:44:57.579Z,20.37
2022-08-07T23:47:19.924Z,20.37
2022-08-07T23:49:58.907Z,20.35
2022-08-07T23:53:05.300Z,20.29
2022-08-07T23:54:52.060Z,20.23
2022-08-07T23:57:09.084Z,20.19
